createdAt,value
2019-06-08T00:00:34.365Z,19.10
2019-06-08T00:01:34.348Z,19.07
2019-06-08T00:02:34.346Z,19.00
2019-06-08T00:03:34.328Z,19.10
2019-06-08T00:04:34.320Z,19.06
2019-06-08T00:05:34.307Z,18.94
2019-06-08T00:06:34.296Z,18.94
2019-06-08T00:07:34.284Z,18.91
2019-06-08T00:08:34.271Z,18.82
2019-06-08T00:09:34.261Z,18.98
2019-06-08T00:10:34.252Z,18.94
2019-06-08T00:11:34.244Z,18.98
2019-06-08T00:12:34.230Z,18.94
2019-06-08T00:13:34.227Z,18.94
2019-06-08T00:14:34.209Z,18.94
2019-06-08T00:15:34.198Z,18.82
2019-06-08T00:16:34.199Z,18.84
2019-06-08T00:17:38.509Z,18.78
2019-06-08T00:18:35.161Z,18.81
2019-06-08T00:19:34.153Z,18.81
2019-06-08T00:20:34.140Z,18.70
2019-06-08T00:21:34.127Z,18.75
2019-06-08T00:22:34.117Z,18.73
2019-06-08T00:23:34.106Z,18.78
2019-06-08T00:24:34.098Z,18.82
2019-06-08T00:25:34.082Z,18.76
2019-06-08T00:26:34.072Z,18.75
2019-06-08T00:27:34.063Z,18.78
2019-06-08T00:28:34.052Z,18.66
2019-06-08T00:29:34.041Z,18.70
2019-06-08T00:30:35.236Z,18.70
2019-06-08T00:31:34.019Z,18.75
2019-06-08T00:32:34.044Z,18.69
2019-06-08T00:33:33.995Z,18.66
2019-06-08T00:34:33.991Z,18.67
2019-06-08T00:35:33.973Z,18.75
2019-06-08T00:36:33.961Z,18.72
2019-06-08T00:37:33.951Z,18.63
2019-06-08T00:38:33.941Z,18.63
2019-06-08T00:39:33.927Z,18.72
2019-06-08T00:40:33.924Z,18.69
2019-06-08T00:41:33.912Z,18.72
2019-06-08T00:42:33.897Z,18.65
2019-06-08T00:43:33.889Z,18.58
2019-06-08T00:44:33.875Z,18.63
2019-06-08T00:45:33.863Z,18.63
2019-06-08T00:46:33.860Z,18.58
2019-06-08T00:47:47.162Z,18.55
2019-06-08T00:48:34.827Z,18.60
2019-06-08T00:49:33.818Z,18.63
2019-06-08T00:50:33.806Z,18.58
2019-06-08T00:51:33.799Z,18.58
2019-06-08T00:52:33.784Z,18.51
2019-06-08T00:53:33.776Z,18.52
2019-06-08T00:54:33.766Z,18.45
2019-06-08T00:55:33.763Z,18.54
2019-06-08T00:56:33.744Z,18.48
2019-06-08T00:57:33.733Z,18.54
2019-06-08T00:58:33.718Z,18.54
2019-06-08T00:59:33.709Z,18.44
2019-06-08T01:00:33.697Z,18.54
2019-06-08T01:01:33.689Z,18.52
2019-06-08T01:02:33.676Z,18.55
2019-06-08T01:03:33.665Z,18.48
2019-06-08T01:04:33.661Z,18.42
2019-06-08T01:05:33.641Z,18.51
2019-06-08T01:06:33.632Z,18.39
2019-06-08T01:07:33.621Z,18.45
2019-06-08T01:08:33.623Z,18.42
2019-06-08T01:09:33.598Z,18.44
2019-06-08T01:10:33.588Z,18.42
2019-06-08T01:11:33.575Z,18.37
2019-06-08T01:12:33.565Z,18.37
2019-06-08T01:13:33.554Z,18.41
2019-06-08T01:14:33.550Z,18.41
2019-06-08T01:15:34.442Z,18.37
2019-06-08T01:16:33.522Z,18.37
2019-06-08T01:17:33.510Z,18.44
2019-06-08T01:18:33.501Z,18.47
2019-06-08T01:19:33.492Z,18.57
2019-06-08T01:20:33.476Z,18.62
2019-06-08T01:21:33.464Z,18.69
2019-06-08T01:22:33.454Z,18.72
2019-06-08T01:23:33.447Z,18.80
2019-06-08T01:24:33.464Z,18.81
2019-06-08T01:25:33.421Z,18.80
2019-06-08T01:26:33.412Z,18.81
2019-06-08T01:27:33.399Z,18.85
2019-06-08T01:28:33.393Z,18.88
2019-06-08T01:29:33.374Z,18.90
2019-06-08T01:30:33.366Z,18.95
2019-06-08T01:31:33.371Z,18.99
2019-06-08T01:32:33.497Z,18.95
2019-06-08T01:33:33.336Z,18.94
2019-06-08T01:34:33.324Z,18.95
2019-06-08T01:35:33.310Z,18.95
2019-06-08T01:36:33.301Z,18.95
2019-06-08T01:37:33.285Z,18.95
2019-06-08T01:38:33.283Z,18.99
2019-06-08T01:39:33.267Z,18.99
2019-06-08T01:40:33.256Z,18.98
2019-06-08T01:41:33.247Z,19.06
2019-06-08T01:42:33.235Z,19.02
2019-06-08T01:43:33.229Z,19.02
2019-06-08T01:44:33.211Z,19.10
2019-06-08T01:45:33.531Z,19.11
2019-06-08T01:46:33.187Z,19.06
2019-06-08T01:47:33.177Z,19.16
2019-06-08T01:48:33.166Z,19.18
2019-06-08T01:49:33.171Z,19.23
2019-06-08T01:50:33.184Z,19.31
2019-06-08T01:51:33.133Z,19.23
2019-06-08T01:52:33.121Z,19.36
2019-06-08T01:53:33.117Z,19.14
2019-06-08T01:54:33.384Z,19.21
2019-06-08T01:55:33.320Z,19.26
2019-06-08T01:56:33.427Z,19.21
2019-06-08T01:57:33.816Z,19.21
2019-06-08T01:58:33.478Z,19.23
2019-06-08T01:59:34.678Z,19.18
2019-06-08T02:00:39.392Z,19.18
2019-06-08T02:01:34.252Z,19.16
2019-06-08T02:02:34.205Z,19.23
2019-06-08T02:03:34.675Z,19.19
2019-06-08T02:04:33.528Z,19.22
2019-06-08T02:05:34.415Z,19.26
2019-06-08T02:06:32.966Z,19.29
2019-06-08T02:07:32.957Z,19.19
2019-06-08T02:08:32.942Z,19.19
2019-06-08T02:09:32.932Z,19.16
2019-06-08T02:10:32.994Z,19.19
2019-06-08T02:11:33.071Z,19.14
2019-06-08T02:12:33.136Z,19.06
2019-06-08T02:13:33.161Z,19.13
2019-06-08T02:14:33.248Z,19.06
2019-06-08T02:15:33.859Z,19.02
2019-06-08T02:16:33.343Z,18.94
2019-06-08T02:17:33.469Z,18.91
2019-06-08T02:18:44.106Z,18.85
2019-06-08T02:19:34.797Z,18.81
2019-06-08T02:20:33.072Z,18.80
2019-06-08T02:21:32.939Z,18.72
2019-06-08T02:22:33.110Z,18.69
2019-06-08T02:23:33.096Z,18.55
2019-06-08T02:24:33.383Z,18.63
2019-06-08T02:25:33.538Z,18.60
2019-06-08T02:26:35.157Z,18.58
2019-06-08T02:27:33.552Z,18.60
2019-06-08T02:28:33.640Z,18.55
2019-06-08T02:29:33.689Z,18.48
2019-06-08T02:30:36.006Z,18.42
2019-06-08T02:31:33.222Z,18.39
2019-06-08T02:32:33.505Z,18.36
2019-06-08T02:33:34.677Z,18.30
2019-06-08T02:34:34.732Z,18.21
2019-06-08T02:35:32.947Z,18.14
2019-06-08T02:36:33.745Z,18.05
2019-06-08T02:37:33.085Z,18.08
2019-06-08T02:38:34.621Z,18.00
2019-06-08T02:39:32.807Z,17.97
2019-06-08T02:40:34.576Z,17.96
2019-06-08T02:41:33.133Z,17.95
2019-06-08T02:42:33.082Z,17.90
2019-06-08T02:43:33.349Z,17.96
2019-06-08T02:44:34.291Z,17.96
2019-06-08T02:45:34.053Z,17.89
2019-06-08T02:46:33.320Z,17.96
2019-06-08T02:47:33.051Z,17.86
2019-06-08T02:48:33.597Z,17.87
2019-06-08T02:49:33.228Z,17.93
2019-06-08T02:50:33.042Z,17.82
2019-06-08T02:51:34.302Z,17.82
2019-06-08T02:52:34.348Z,17.81
2019-06-08T02:53:34.278Z,17.79
2019-06-08T02:54:34.719Z,17.86
2019-06-08T02:55:33.066Z,17.84
2019-06-08T02:56:33.936Z,17.82
2019-06-08T02:57:33.239Z,17.79
2019-06-08T02:58:33.580Z,17.81
2019-06-08T02:59:32.921Z,17.84
2019-06-08T03:00:33.659Z,17.82
2019-06-08T03:01:33.702Z,17.77
2019-06-08T03:02:33.903Z,17.77
2019-06-08T03:03:33.796Z,17.82
2019-06-08T03:04:32.455Z,17.81
2019-06-08T03:05:33.987Z,17.79
2019-06-08T03:06:34.537Z,17.71
2019-06-08T03:07:32.385Z,17.75
2019-06-08T03:08:32.838Z,17.75
2019-06-08T03:09:32.508Z,17.78
2019-06-08T03:10:32.939Z,17.78
2019-06-08T03:11:32.647Z,17.79
2019-06-08T03:12:32.992Z,17.79
2019-06-08T03:13:33.582Z,17.79
2019-06-08T03:14:33.318Z,17.77
2019-06-08T03:15:34.490Z,17.78
2019-06-08T03:16:33.347Z,17.81
2019-06-08T03:17:33.389Z,17.79
2019-06-08T03:18:33.642Z,17.75
2019-06-08T03:19:33.321Z,17.79
2019-06-08T03:20:33.449Z,17.74
2019-06-08T03:21:33.828Z,17.75
2019-06-08T03:22:34.036Z,17.82
2019-06-08T03:23:34.058Z,17.71
2019-06-08T03:24:32.905Z,17.71
2019-06-08T03:25:35.182Z,17.71
2019-06-08T03:26:34.249Z,17.75
2019-06-08T03:27:32.664Z,17.74
2019-06-08T03:28:32.625Z,17.71
2019-06-08T03:29:32.468Z,17.63
2019-06-08T03:30:35.302Z,17.66
2019-06-08T03:31:36.125Z,17.71
2019-06-08T03:32:34.840Z,17.63
2019-06-08T03:33:34.527Z,17.59
2019-06-08T03:34:35.571Z,17.62
2019-06-08T03:35:36.056Z,17.56
2019-06-08T03:36:35.823Z,17.58
2019-06-08T03:37:33.280Z,17.62
2019-06-08T03:38:33.595Z,17.66
2019-06-08T03:39:31.951Z,17.62
2019-06-08T03:40:33.791Z,17.59
2019-06-08T03:41:31.930Z,17.56
2019-06-08T03:42:31.920Z,17.54
2019-06-08T03:43:31.907Z,17.49
2019-06-08T03:44:31.903Z,17.44
2019-06-08T03:45:31.885Z,17.48
2019-06-08T03:46:31.872Z,17.40
2019-06-08T03:47:31.862Z,17.49
2019-06-08T03:48:31.854Z,17.38
2019-06-08T03:49:42.910Z,17.48
2019-06-08T03:50:32.831Z,17.49
2019-06-08T03:51:35.349Z,17.46
2019-06-08T03:52:32.808Z,17.44
2019-06-08T03:53:31.798Z,17.43
2019-06-08T03:54:31.793Z,17.31
2019-06-08T03:55:31.777Z,17.46
2019-06-08T03:56:31.764Z,17.23
2019-06-08T03:57:31.760Z,17.23
2019-06-08T03:58:34.124Z,17.19
2019-06-08T03:59:31.735Z,17.12
2019-06-08T04:00:31.721Z,17.11
2019-06-08T04:01:31.709Z,17.07
2019-06-08T04:02:31.699Z,17.08
2019-06-08T04:03:31.690Z,17.01
2019-06-08T04:04:31.689Z,17.00
2019-06-08T04:05:31.668Z,16.98
2019-06-08T04:06:31.655Z,16.91
2019-06-08T04:07:31.646Z,16.97
2019-06-08T04:08:31.635Z,16.98
2019-06-08T04:09:31.637Z,16.88
2019-06-08T04:10:31.614Z,16.86
2019-06-08T04:11:31.606Z,16.79
2019-06-08T04:12:31.594Z,16.79
2019-06-08T04:13:31.580Z,16.86
2019-06-08T04:14:31.600Z,16.79
2019-06-08T04:15:31.560Z,16.70
2019-06-08T04:16:31.552Z,16.86
2019-06-08T04:17:31.545Z,16.85
2019-06-08T04:18:31.526Z,16.78
2019-06-08T04:19:31.514Z,16.67
2019-06-08T04:20:31.503Z,16.79
2019-06-08T04:21:31.573Z,16.68
2019-06-08T04:22:31.483Z,16.78
2019-06-08T04:23:31.473Z,16.76
2019-06-08T04:24:31.463Z,16.73
2019-06-08T04:25:31.448Z,16.68
2019-06-08T04:26:31.445Z,16.81
2019-06-08T04:27:31.440Z,16.83
2019-06-08T04:28:31.429Z,16.83
2019-06-08T04:29:31.405Z,16.82
2019-06-08T04:30:31.396Z,16.83
2019-06-08T04:31:31.388Z,16.85
2019-06-08T04:32:31.376Z,16.86
2019-06-08T04:33:31.362Z,16.79
2019-06-08T04:34:31.356Z,16.89
2019-06-08T04:35:31.344Z,16.81
2019-06-08T04:36:31.330Z,16.81
2019-06-08T04:37:31.322Z,16.82
2019-06-08T04:38:31.307Z,16.86
2019-06-08T04:39:31.299Z,16.86
2019-06-08T04:40:31.291Z,16.82
2019-06-08T04:41:31.276Z,16.88
2019-06-08T04:42:31.276Z,16.83
2019-06-08T04:43:31.256Z,16.83
2019-06-08T04:44:31.245Z,16.81
2019-06-08T04:45:31.268Z,16.83
2019-06-08T04:46:31.222Z,16.79
2019-06-08T04:47:31.214Z,16.83
2019-06-08T04:48:31.201Z,16.91
2019-06-08T04:49:31.194Z,16.86
2019-06-08T04:50:31.181Z,16.85
2019-06-08T04:51:31.175Z,16.78
2019-06-08T04:52:31.162Z,16.85
2019-06-08T04:53:31.145Z,16.86
2019-06-08T04:54:31.157Z,16.86
2019-06-08T04:55:31.208Z,16.76
2019-06-08T04:56:31.114Z,16.83
2019-06-08T04:57:31.103Z,16.81
2019-06-08T04:58:31.095Z,16.86
2019-06-08T04:59:31.081Z,16.82
2019-06-08T05:00:31.525Z,16.82
2019-06-08T05:01:31.059Z,16.81
2019-06-08T05:02:31.047Z,16.82
2019-06-08T05:03:31.057Z,16.94
2019-06-08T05:04:31.032Z,16.96
2019-06-08T05:05:31.020Z,17.00
2019-06-08T05:06:31.029Z,17.11
2019-06-08T05:07:30.995Z,17.11
2019-06-08T05:08:30.983Z,17.21
2019-06-08T05:09:30.977Z,17.26
2019-06-08T05:10:30.962Z,17.21
2019-06-08T05:11:30.953Z,17.23
2019-06-08T05:12:30.950Z,17.25
2019-06-08T05:13:30.939Z,17.25
2019-06-08T05:14:30.926Z,17.33
2019-06-08T05:15:30.906Z,17.23
2019-06-08T05:16:30.901Z,17.22
2019-06-08T05:17:30.886Z,17.25
2019-06-08T05:18:30.875Z,17.28
2019-06-08T05:19:31.001Z,17.33
2019-06-08T05:20:38.837Z,17.31
2019-06-08T05:21:31.845Z,17.37
2019-06-08T05:22:30.832Z,17.40
2019-06-08T05:23:30.821Z,17.44
2019-06-08T05:24:30.814Z,17.41
2019-06-08T05:25:30.797Z,17.43
2019-06-08T05:26:30.799Z,17.40
2019-06-08T05:27:30.782Z,17.40
2019-06-08T05:28:30.791Z,17.37
2019-06-08T05:29:30.757Z,17.37
2019-06-08T05:30:30.743Z,17.44
2019-06-08T05:31:30.734Z,17.38
2019-06-08T05:32:30.724Z,17.36
2019-06-08T05:33:30.721Z,17.37
2019-06-08T05:34:30.703Z,17.56
2019-06-08T05:35:30.703Z,17.86
2019-06-08T05:36:30.682Z,18.12
2019-06-08T05:37:30.666Z,18.54
2019-06-08T05:38:30.662Z,18.88
2019-06-08T05:39:30.910Z,19.14
2019-06-08T05:40:30.634Z,19.19
2019-06-08T05:41:30.625Z,19.36
2019-06-08T05:42:30.614Z,19.50
2019-06-08T05:43:30.603Z,19.84
2019-06-08T05:44:30.608Z,19.81
2019-06-08T05:45:30.581Z,19.78
2019-06-08T05:46:30.568Z,19.74
2019-06-08T05:47:30.558Z,19.50
2019-06-08T05:48:30.545Z,19.29
2019-06-08T05:49:30.534Z,19.36
2019-06-08T05:50:30.539Z,19.33
2019-06-08T05:51:30.513Z,19.39
2019-06-08T05:52:30.538Z,19.33
2019-06-08T05:53:30.489Z,19.33
2019-06-08T05:54:30.487Z,19.46
2019-06-08T05:55:30.468Z,19.71
2019-06-08T05:56:30.458Z,19.65
2019-06-08T05:57:30.450Z,19.81
2019-06-08T05:58:30.436Z,19.76
2019-06-08T05:59:30.425Z,19.98
2019-06-08T06:00:30.414Z,19.86
2019-06-08T06:01:30.403Z,20.05
2019-06-08T06:02:30.394Z,20.08
2019-06-08T06:03:30.389Z,20.10
2019-06-08T06:04:30.384Z,20.03
2019-06-08T06:05:30.358Z,19.81
2019-06-08T06:06:30.349Z,19.74
2019-06-08T06:07:30.339Z,19.83
2019-06-08T06:08:30.342Z,19.83
2019-06-08T06:09:30.318Z,19.86
2019-06-08T06:10:30.305Z,19.80
2019-06-08T06:11:30.295Z,19.81
2019-06-08T06:12:30.283Z,19.86
2019-06-08T06:13:30.277Z,19.73
2019-06-08T06:14:30.270Z,19.96
2019-06-08T06:15:30.253Z,19.81
2019-06-08T06:16:30.239Z,19.84
2019-06-08T06:17:30.231Z,19.99
2019-06-08T06:18:30.222Z,19.95
2019-06-08T06:19:30.208Z,20.02
2019-06-08T06:20:30.199Z,20.11
2019-06-08T06:21:30.187Z,20.21
2019-06-08T06:22:30.173Z,20.36
2019-06-08T06:23:30.162Z,20.74
2019-06-08T06:24:30.164Z,20.57
2019-06-08T06:25:30.144Z,20.42
2019-06-08T06:26:30.132Z,20.69
2019-06-08T06:27:30.123Z,20.39
2019-06-08T06:28:30.113Z,20.23
2019-06-08T06:29:30.104Z,20.05
2019-06-08T06:30:30.090Z,19.88
2019-06-08T06:31:30.076Z,19.78
2019-06-08T06:32:30.080Z,19.73
2019-06-08T06:33:30.056Z,19.36
2019-06-08T06:34:30.048Z,19.26
2019-06-08T06:35:30.050Z,19.37
2019-06-08T06:36:30.021Z,19.32
2019-06-08T06:37:30.013Z,19.37
2019-06-08T06:38:30.002Z,19.33
2019-06-08T06:39:29.991Z,19.32
2019-06-08T06:40:29.984Z,19.39
2019-06-08T06:41:29.974Z,19.54
2019-06-08T06:42:29.961Z,19.63
2019-06-08T06:43:29.953Z,19.73
2019-06-08T06:44:29.944Z,19.74
2019-06-08T06:45:29.925Z,19.61
2019-06-08T06:46:29.913Z,19.59
2019-06-08T06:47:29.902Z,19.37
2019-06-08T06:48:29.896Z,19.32
2019-06-08T06:49:29.882Z,19.41
2019-06-08T06:50:29.889Z,19.83
2019-06-08T06:51:29.861Z,20.17
2019-06-08T06:52:29.849Z,20.32
2019-06-08T06:53:29.840Z,20.59
2019-06-08T06:54:29.849Z,20.80
2019-06-08T06:55:29.815Z,20.94
2019-06-08T06:56:29.805Z,20.88
2019-06-08T06:57:29.795Z,20.80
2019-06-08T06:58:29.783Z,20.76
2019-06-08T06:59:29.774Z,20.82
2019-06-08T07:00:29.761Z,20.97
2019-06-08T07:01:29.753Z,20.97
2019-06-08T07:02:29.740Z,21.28
2019-06-08T07:03:29.742Z,21.40
2019-06-08T07:04:29.726Z,21.50
2019-06-08T07:05:29.706Z,21.43
2019-06-08T07:06:29.696Z,21.50
2019-06-08T07:07:29.684Z,21.46
2019-06-08T07:08:29.679Z,21.22
2019-06-08T07:09:29.663Z,21.24
2019-06-08T07:10:29.654Z,21.44
2019-06-08T07:11:29.646Z,21.82
2019-06-08T07:12:29.634Z,22.06
2019-06-08T07:13:29.630Z,21.61
2019-06-08T07:14:29.611Z,21.62
2019-06-08T07:15:29.598Z,21.52
2019-06-08T07:16:29.587Z,21.04
2019-06-08T07:17:29.589Z,20.51
2019-06-08T07:18:29.566Z,20.24
2019-06-08T07:19:29.563Z,20.02
2019-06-08T07:20:29.549Z,19.81
2019-06-08T07:21:41.380Z,19.81
2019-06-08T07:22:30.523Z,19.80
2019-06-08T07:23:29.513Z,19.65
2019-06-08T07:24:29.503Z,19.61
2019-06-08T07:25:29.490Z,19.58
2019-06-08T07:26:29.481Z,19.56
2019-06-08T07:27:29.467Z,19.59
2019-06-08T07:28:29.466Z,19.39
2019-06-08T07:29:29.447Z,19.22
2019-06-08T07:30:29.437Z,19.22
2019-06-08T07:31:29.429Z,19.39
2019-06-08T07:32:29.415Z,19.33
2019-06-08T07:33:29.406Z,19.31
2019-06-08T07:34:29.395Z,19.31
2019-06-08T07:35:29.381Z,19.43
2019-06-08T07:36:29.371Z,19.36
2019-06-08T07:37:29.576Z,19.36
2019-06-08T07:38:29.350Z,19.37
2019-06-08T07:39:29.344Z,19.46
2019-06-08T07:40:29.326Z,19.44
2019-06-08T07:41:29.319Z,19.54
2019-06-08T07:42:29.308Z,19.55
2019-06-08T07:43:29.295Z,19.61
2019-06-08T07:44:29.289Z,19.65
2019-06-08T07:45:29.273Z,19.65
2019-06-08T07:46:29.263Z,19.65
2019-06-08T07:47:29.252Z,19.62
2019-06-08T07:48:29.240Z,19.54
2019-06-08T07:49:29.231Z,19.37
2019-06-08T07:50:29.219Z,19.37
2019-06-08T07:51:29.213Z,19.28
2019-06-08T07:52:29.197Z,19.18
2019-06-08T07:53:29.200Z,19.16
2019-06-08T07:54:29.183Z,19.06
2019-06-08T07:55:29.163Z,18.87
2019-06-08T07:56:29.154Z,18.72
2019-06-08T07:57:29.150Z,18.66
2019-06-08T07:58:29.132Z,18.60
2019-06-08T07:59:29.121Z,18.62
2019-06-08T08:00:29.111Z,18.45
2019-06-08T08:01:36.052Z,18.52
2019-06-08T08:02:30.085Z,18.48
2019-06-08T08:03:29.076Z,18.41
2019-06-08T08:04:29.067Z,18.48
2019-06-08T08:05:29.054Z,18.50
2019-06-08T08:06:30.435Z,18.50
2019-06-08T08:07:29.034Z,18.50
2019-06-08T08:08:29.022Z,18.47
2019-06-08T08:09:29.573Z,18.47
2019-06-08T08:10:29.006Z,18.50
2019-06-08T08:11:29.041Z,18.45
2019-06-08T08:12:28.981Z,18.39
2019-06-08T08:13:28.969Z,18.55
2019-06-08T08:14:28.961Z,18.65
2019-06-08T08:15:28.949Z,18.60
2019-06-08T08:16:28.934Z,18.54
2019-06-08T08:17:28.923Z,18.72
2019-06-08T08:18:28.917Z,18.88
2019-06-08T08:19:28.903Z,19.07
2019-06-08T08:20:28.890Z,19.10
2019-06-08T08:21:29.589Z,19.13
2019-06-08T08:22:29.589Z,19.04
2019-06-08T08:23:28.860Z,18.95
2019-06-08T08:24:28.853Z,19.08
2019-06-08T08:25:28.841Z,18.94
2019-06-08T08:26:31.308Z,18.90
2019-06-08T08:27:29.816Z,18.70
2019-06-08T08:28:28.805Z,18.62
2019-06-08T08:29:31.374Z,18.55
2019-06-08T08:30:28.782Z,18.52
2019-06-08T08:31:28.772Z,18.45
2019-06-08T08:32:28.767Z,18.47
2019-06-08T08:33:28.750Z,18.39
2019-06-08T08:34:28.748Z,18.33
2019-06-08T08:35:28.729Z,18.26
2019-06-08T08:36:30.129Z,18.20
2019-06-08T08:37:28.707Z,18.25
2019-06-08T08:38:28.700Z,18.25
2019-06-08T08:39:28.684Z,18.27
2019-06-08T08:40:28.676Z,18.26
2019-06-08T08:41:28.664Z,18.29
2019-06-08T08:42:30.134Z,18.26
2019-06-08T08:43:28.640Z,18.32
2019-06-08T08:44:28.633Z,18.35
2019-06-08T08:45:28.623Z,18.42
2019-06-08T08:46:28.724Z,18.48
2019-06-08T08:47:30.818Z,18.54
2019-06-08T08:48:31.502Z,18.50
2019-06-08T08:49:28.576Z,18.57
2019-06-08T08:50:28.566Z,18.70
2019-06-08T08:51:28.556Z,18.78
2019-06-08T08:52:36.806Z,18.76
2019-06-08T08:53:29.534Z,18.80
2019-06-08T08:54:29.788Z,18.87
2019-06-08T08:55:28.511Z,18.90
2019-06-08T08:56:28.498Z,18.88
2019-06-08T08:57:28.940Z,18.80
2019-06-08T08:58:28.483Z,18.80
2019-06-08T08:59:28.466Z,18.66
2019-06-08T09:00:28.456Z,18.69
2019-06-08T09:01:28.967Z,18.60
2019-06-08T09:02:28.437Z,18.51
2019-06-08T09:03:33.247Z,18.50
2019-06-08T09:04:29.418Z,18.37
2019-06-08T09:05:28.403Z,18.41
2019-06-08T09:06:28.430Z,18.41
2019-06-08T09:07:28.381Z,18.42
2019-06-08T09:08:29.935Z,18.39
2019-06-08T09:09:28.891Z,18.33
2019-06-08T09:10:28.347Z,18.35
2019-06-08T09:11:28.906Z,18.45
2019-06-08T09:12:28.338Z,18.39
2019-06-08T09:13:28.386Z,18.37
2019-06-08T09:14:28.312Z,18.36
2019-06-08T09:15:31.419Z,18.42
2019-06-08T09:16:28.859Z,18.36
2019-06-08T09:17:28.290Z,18.33
2019-06-08T09:18:28.691Z,18.25
2019-06-08T09:19:28.326Z,18.26
2019-06-08T09:20:28.647Z,18.20
2019-06-08T09:21:28.317Z,18.15
2019-06-08T09:22:31.170Z,18.12
2019-06-08T09:23:28.291Z,18.15
2019-06-08T09:24:28.603Z,18.05
2019-06-08T09:25:28.225Z,18.12
2019-06-08T09:26:28.745Z,18.17
2019-06-08T09:27:28.185Z,18.00
2019-06-08T09:28:28.582Z,18.07
2019-06-08T09:29:28.927Z,18.02
2019-06-08T09:30:28.145Z,17.93
2019-06-08T09:31:30.881Z,17.95
2019-06-08T09:32:28.326Z,18.11
2019-06-08T09:33:28.790Z,18.17
2019-06-08T09:34:28.379Z,18.12
2019-06-08T09:35:28.118Z,18.10
2019-06-08T09:36:28.647Z,18.21
2019-06-08T09:37:28.827Z,18.29
2019-06-08T09:38:28.724Z,18.32
2019-06-08T09:39:28.667Z,18.47
2019-06-08T09:40:31.857Z,18.52
2019-06-08T09:41:31.161Z,18.54
2019-06-08T09:42:28.481Z,18.54
2019-06-08T09:43:28.902Z,18.76
2019-06-08T09:44:28.191Z,18.94
2019-06-08T09:45:28.973Z,18.95
2019-06-08T09:46:28.236Z,19.06
2019-06-08T09:47:28.117Z,19.00
2019-06-08T09:48:28.862Z,19.04
2019-06-08T09:49:28.099Z,18.85
2019-06-08T09:50:27.973Z,18.65
2019-06-08T09:51:28.488Z,18.57
2019-06-08T09:52:28.264Z,18.47
2019-06-08T09:53:36.965Z,18.42
2019-06-08T09:54:28.870Z,18.20
2019-06-08T09:55:28.847Z,18.20
2019-06-08T09:56:28.416Z,18.25
2019-06-08T09:57:28.442Z,18.18
2019-06-08T09:58:29.104Z,18.14
2019-06-08T09:59:28.506Z,18.18
2019-06-08T10:00:29.289Z,18.08
2019-06-08T10:01:28.675Z,18.12
2019-06-08T10:02:28.363Z,18.14
2019-06-08T10:03:30.654Z,18.12
2019-06-08T10:04:29.164Z,18.23
2019-06-08T10:05:27.786Z,18.21
2019-06-08T10:06:27.820Z,18.26
2019-06-08T10:07:28.613Z,18.36
2019-06-08T10:08:28.281Z,18.36
2019-06-08T10:09:28.412Z,18.47
2019-06-08T10:10:27.693Z,18.48
2019-06-08T10:11:28.171Z,18.52
2019-06-08T10:12:28.187Z,18.66
2019-06-08T10:13:28.037Z,18.85
2019-06-08T10:14:28.179Z,19.06
2019-06-08T10:15:27.900Z,19.23
2019-06-08T10:16:30.537Z,19.41
2019-06-08T10:17:27.983Z,19.22
2019-06-08T10:18:28.491Z,19.18
2019-06-08T10:19:27.598Z,19.19
2019-06-08T10:20:28.825Z,19.14
2019-06-08T10:21:28.436Z,19.18
2019-06-08T10:22:28.287Z,19.14
2019-06-08T10:23:34.025Z,19.14
2019-06-08T10:24:28.552Z,19.13
2019-06-08T10:25:28.639Z,19.16
2019-06-08T10:26:28.029Z,19.11
2019-06-08T10:27:28.333Z,19.08
2019-06-08T10:28:29.002Z,18.90
2019-06-08T10:29:27.485Z,18.78
2019-06-08T10:30:30.111Z,18.88
2019-06-08T10:31:36.564Z,18.82
2019-06-08T10:32:28.465Z,18.82
2019-06-08T10:33:28.183Z,18.90
2019-06-08T10:34:29.592Z,18.80
2019-06-08T10:35:28.356Z,18.66
2019-06-08T10:36:28.389Z,18.60
2019-06-08T10:37:28.349Z,18.58
2019-06-08T10:38:28.989Z,18.47
2019-06-08T10:39:28.376Z,18.54
2019-06-08T10:40:28.515Z,18.50
2019-06-08T10:41:27.898Z,18.39
2019-06-08T10:42:27.345Z,18.47
2019-06-08T10:43:28.925Z,18.44
2019-06-08T10:44:28.391Z,18.51
2019-06-08T10:45:28.599Z,18.52
2019-06-08T10:46:27.303Z,18.62
2019-06-08T10:47:29.583Z,18.69
2019-06-08T10:48:27.679Z,18.73
2019-06-08T10:49:28.714Z,18.73
2019-06-08T10:50:28.807Z,18.75
2019-06-08T10:51:27.245Z,18.81
2019-06-08T10:52:28.169Z,18.90
2019-06-08T10:53:29.758Z,18.99
2019-06-08T10:54:28.210Z,18.99
2019-06-08T10:55:28.079Z,19.07
2019-06-08T10:56:30.905Z,19.16
2019-06-08T10:57:28.016Z,19.14
2019-06-08T10:58:28.392Z,19.32
2019-06-08T10:59:28.927Z,19.47
2019-06-08T11:00:28.144Z,19.51
2019-06-08T11:01:28.260Z,19.63
2019-06-08T11:02:28.233Z,19.86
2019-06-08T11:03:30.396Z,20.10
2019-06-08T11:04:28.662Z,20.35
2019-06-08T11:05:28.060Z,20.67
2019-06-08T11:06:27.109Z,21.38
2019-06-08T11:07:28.010Z,22.09
2019-06-08T11:08:27.650Z,22.54
2019-06-08T11:09:28.599Z,22.90
2019-06-08T11:10:27.053Z,23.01
2019-06-08T11:11:28.504Z,22.73
2019-06-08T11:12:28.319Z,23.07
2019-06-08T11:13:28.278Z,22.65
2019-06-08T11:14:27.997Z,22.85
2019-06-08T11:15:29.404Z,22.70
2019-06-08T11:16:28.662Z,22.57
2019-06-08T11:17:27.920Z,22.97
2019-06-08T11:18:28.639Z,22.88
2019-06-08T11:19:26.950Z,22.67
2019-06-08T11:20:27.563Z,22.49
2019-06-08T11:21:28.613Z,22.18
2019-06-08T11:22:27.881Z,22.02
2019-06-08T11:23:28.750Z,21.75
2019-06-08T11:24:28.798Z,21.47
2019-06-08T11:25:27.995Z,21.24
2019-06-08T11:26:28.927Z,20.82
2019-06-08T11:27:28.473Z,20.73
2019-06-08T11:28:28.355Z,20.67
2019-06-08T11:29:27.554Z,20.74
2019-06-08T11:30:30.317Z,20.70
2019-06-08T11:31:29.806Z,21.03
2019-06-08T11:32:27.803Z,21.88
2019-06-08T11:33:30.243Z,22.30
2019-06-08T11:34:28.695Z,22.62
2019-06-08T11:35:28.618Z,22.86
2019-06-08T11:36:28.215Z,22.64
2019-06-08T11:37:26.751Z,22.54
2019-06-08T11:38:28.889Z,23.00
2019-06-08T11:39:28.706Z,22.85
2019-06-08T11:40:27.857Z,22.75
2019-06-08T11:41:27.826Z,22.88
2019-06-08T11:42:28.638Z,23.01
2019-06-08T11:43:28.743Z,23.05
2019-06-08T11:44:27.615Z,23.42
2019-06-08T11:45:26.667Z,23.98
2019-06-08T11:46:28.173Z,23.50
2019-06-08T11:47:27.732Z,23.55
2019-06-08T11:48:28.538Z,23.38
2019-06-08T11:49:27.883Z,22.91
2019-06-08T11:50:26.612Z,22.57
2019-06-08T11:51:29.648Z,22.58
2019-06-08T11:52:28.579Z,22.40
2019-06-08T11:53:28.680Z,22.21
2019-06-08T11:54:34.369Z,22.47
2019-06-08T11:55:28.145Z,22.64
2019-06-08T11:56:26.548Z,22.67
2019-06-08T11:57:28.295Z,22.43
2019-06-08T11:58:28.262Z,22.10
2019-06-08T11:59:28.483Z,22.28
2019-06-08T12:00:30.706Z,22.25
2019-06-08T12:01:27.663Z,22.65
2019-06-08T12:02:26.488Z,22.97
2019-06-08T12:03:27.651Z,22.49
2019-06-08T12:04:28.334Z,22.12
2019-06-08T12:05:27.835Z,21.47
2019-06-08T12:06:26.448Z,21.13
2019-06-08T12:07:28.254Z,21.06
2019-06-08T12:08:28.435Z,20.87
2019-06-08T12:09:28.505Z,20.77
2019-06-08T12:10:28.460Z,20.76
2019-06-08T12:11:28.357Z,20.80
2019-06-08T12:12:28.278Z,20.84
2019-06-08T12:13:27.810Z,20.94
2019-06-08T12:14:26.358Z,20.89
2019-06-08T12:15:28.646Z,20.91
2019-06-08T12:16:28.233Z,20.88
2019-06-08T12:17:27.642Z,20.77
2019-06-08T12:18:26.312Z,20.88
2019-06-08T12:19:28.335Z,20.95
2019-06-08T12:20:27.983Z,21.03
2019-06-08T12:21:27.374Z,21.21
2019-06-08T12:22:26.271Z,21.16
2019-06-08T12:23:26.268Z,21.25
2019-06-08T12:24:40.856Z,21.13
2019-06-08T12:25:27.237Z,21.22
2019-06-08T12:26:26.225Z,21.54
2019-06-08T12:27:33.189Z,21.75
2019-06-08T12:28:28.063Z,21.77
2019-06-08T12:29:28.226Z,21.68
2019-06-08T12:30:29.452Z,21.62
2019-06-08T12:31:28.078Z,21.72
2019-06-08T12:32:27.852Z,21.77
2019-06-08T12:33:30.340Z,22.18
2019-06-08T12:34:28.070Z,23.09
2019-06-08T12:35:28.274Z,23.76
2019-06-08T12:36:28.734Z,23.93
2019-06-08T12:37:27.559Z,23.57
2019-06-08T12:38:30.042Z,23.39
2019-06-08T12:39:28.150Z,22.91
2019-06-08T12:40:28.110Z,22.79
2019-06-08T12:41:28.896Z,23.10
2019-06-08T12:42:28.360Z,23.73
2019-06-08T12:43:28.317Z,23.85
2019-06-08T12:44:28.933Z,23.95
2019-06-08T12:45:27.616Z,24.08
2019-06-08T12:46:27.974Z,24.08
2019-06-08T12:47:29.229Z,23.57
2019-06-08T12:48:25.990Z,23.51
2019-06-08T12:49:25.979Z,23.19
2019-06-08T12:50:28.103Z,23.42
2019-06-08T12:51:27.923Z,23.55
2019-06-08T12:52:29.523Z,23.70